Time;durP1;ratioP1;P1;durP2;ratioP2;P2;SDS_P1;SDS_P2;PMS_P1;PMS_P2;Temp;Humidity;BMP_temperature;BMP_pressure;BME280_temperature;BME280_humidity;BME280_pressure;Samples;Min_cycle;Max_cycle;Signal;HPM_P1;HPM_P2
2020/12/17 00:01:59;;;;;;;2.10;1.19;;;;;;;6.97;86.27;99414.34;2058558;78;20381;-75
2020/12/17 00:05:02;;;;;;;3.20;1.20;;;;;;;7.02;86.10;99419.56;2058161;78;20206;-75
2020/12/17 00:08:04;;;;;;;1.95;1.26;;;;;;;7.04;85.99;99421.31;2057712;78;20430;-75
2020/12/17 00:11:06;;;;;;;1.76;1.21;;;;;;;7.13;85.85;99413.63;2058331;78;20373;-75
2020/12/17 00:14:08;;;;;;;1.74;1.33;;;;;;;7.22;85.49;99412.88;2057936;78;20329;-75
2020/12/17 00:17:09;;;;;;;1.19;0.96;;;;;;;7.26;85.14;99410.31;2058009;78;20881;-76
2020/12/17 00:20:12;;;;;;;1.15;0.94;;;;;;;7.28;84.85;99410.34;2059313;78;20308;-75
2020/12/17 00:23:14;;;;;;;3.66;1.27;;;;;;;7.33;84.60;99411.22;2057883;78;20784;-75
2020/12/17 00:26:16;;;;;;;2.22;1.17;;;;;;;7.30;84.47;99406.03;2057475;78;20377;-75
2020/12/17 00:29:17;;;;;;;1.14;0.96;;;;;;;7.30;84.39;99407.75;2057503;78;20955;-75
2020/12/17 00:35:39;;;;;;;1.41;0.93;;;;;;;7.33;84.09;99416.41;2011850;69;20425;-72
2020/12/17 00:38:41;;;;;;;2.04;0.99;;;;;;;7.37;83.94;99414.72;2005743;80;20804;-72
2020/12/17 00:41:42;;;;;;;1.83;1.00;;;;;;;7.41;83.85;99419.06;2005224;80;20323;-72
2020/12/17 00:44:44;;;;;;;1.91;1.10;;;;;;;7.41;83.59;99419.94;2005839;80;20901;-72
2020/12/17 00:47:46;;;;;;;3.44;1.00;;;;;;;7.38;83.36;99417.31;2005397;80;20364;-72
2020/12/17 00:50:47;;;;;;;1.74;1.13;;;;;;;7.30;83.25;99411.22;2005650;80;20338;-72
2020/12/17 00:53:49;;;;;;;1.29;0.99;;;;;;;7.24;83.36;99412.03;2005960;80;20331;-72
2020/12/17 00:56:52;;;;;;;2.54;1.06;;;;;;;7.27;83.54;99418.94;2006145;80;20367;-72
2020/12/17 00:59:54;;;;;;;2.59;1.09;;;;;;;7.30;83.40;99420.69;2005913;80;20892;-72
2020/12/17 01:02:55;;;;;;;1.66;1.00;;;;;;;7.23;83.61;99418.06;2005565;80;21285;-72
2020/12/17 01:05:57;;;;;;;1.65;1.10;;;;;;;7.23;83.57;99422.34;2006402;80;20333;-72
2020/12/17 01:08:59;;;;;;;1.60;1.44;;;;;;;7.18;83.61;99422.31;2005400;80;20337;-72
2020/12/17 01:12:04;;;;;;;2.29;1.20;;;;;;;7.12;83.51;99421.38;2004921;80;20324;-72
2020/12/17 01:15:06;;;;;;;1.01;0.95;;;;;;;7.06;83.59;99418.75;2006107;80;20373;-72
2020/12/17 01:18:07;;;;;;;2.14;1.61;;;;;;;7.03;83.79;99429.03;2005643;80;20458;-72
2020/12/17 01:21:09;;;;;;;2.46;1.05;;;;;;;7.01;83.96;99435.91;2005511;80;20323;-72
2020/12/17 01:24:11;;;;;;;2.26;1.29;;;;;;;6.96;83.94;99444.44;2005952;80;20373;-72
2020/12/17 01:27:12;;;;;;;1.19;1.09;;;;;;;6.94;84.16;99437.53;2004908;80;20679;-72
2020/12/17 01:30:14;;;;;;;2.72;1.06;;;;;;;6.86;84.10;99439.19;2005469;80;20242;-72
2020/12/17 01:33:18;;;;;;;1.88;1.13;;;;;;;6.79;84.27;99432.19;2005475;80;20381;-72
2020/12/17 01:36:19;;;;;;;1.29;1.11;;;;;;;6.76;84.55;99447.66;2004423;80;20308;-72
2020/12/17 01:39:24;;;;;;;2.14;1.20;;;;;;;6.68;84.88;99451.88;2004681;80;20396;-72
2020/12/17 01:42:26;;;;;;;2.19;1.01;;;;;;;6.60;84.84;99444.88;2004479;80;20327;-72
2020/12/17 01:45:28;;;;;;;1.38;1.08;;;;;;;6.54;84.95;99447.41;2004975;80;20356;-72
2020/12/17 01:48:29;;;;;;;1.84;1.17;;;;;;;6.49;85.36;99449.06;2003658;80;20800;-72
2020/12/17 01:51:31;;;;;;;2.94;1.00;;;;;;;6.48;85.48;99456.78;2003374;80;20348;-72
2020/12/17 01:54:33;;;;;;;1.88;1.29;;;;;;;6.45;85.57;99456.72;2002665;80;20327;-72
2020/12/17 01:57:35;;;;;;;3.76;1.00;;;;;;;6.43;85.76;99455.84;2003919;80;20339;-72
2020/12/17 02:00:37;;;;;;;2.31;1.05;;;;;;;6.34;85.53;99457.47;2005037;80;20885;-72
2020/12/17 02:03:40;;;;;;;2.99;1.40;;;;;;;6.21;85.48;99458.13;2003703;80;20319;-72
2020/12/17 02:06:42;;;;;;;2.34;1.38;;;;;;;6.13;85.62;99453.72;2003124;80;20365;-72
2020/12/17 02:09:44;;;;;;;1.91;1.24;;;;;;;6.06;85.66;99457.91;2005486;80;20345;-72
2020/12/17 02:12:48;;;;;;;1.65;1.23;;;;;;;6.09;86.16;99454.50;2003702;80;20337;-72
2020/12/17 02:15:50;;;;;;;3.22;1.36;;;;;;;6.04;86.21;99455.31;2005437;80;20338;-72
2020/12/17 02:18:52;;;;;;;2.69;1.33;;;;;;;5.98;86.06;99451.78;2007909;80;20327;-72
2020/12/17 02:21:55;;;;;;;1.79;1.29;;;;;;;5.82;85.94;99455.81;2008599;80;20356;-72
2020/12/17 02:24:57;;;;;;;1.74;1.33;;;;;;;5.75;86.50;99460.00;2007935;80;20829;-72
2020/12/17 02:27:58;;;;;;;1.49;1.04;;;;;;;5.70;86.68;99456.47;2006971;80;20355;-72
2020/12/17 02:31:00;;;;;;;3.76;1.63;;;;;;;5.74;86.90;99447.06;2004657;80;20811;-72
2020/12/17 02:34:03;;;;;;;1.59;1.10;;;;;;;5.64;86.87;99447.78;2001837;80;20412;-73
2020/12/17 02:37:04;;;;;;;1.33;1.15;;;;;;;5.61;87.02;99452.88;2005596;80;20380;-72
2020/12/17 02:40:06;;;;;;;3.79;1.38;;;;;;;5.59;87.26;99450.28;2006027;80;20344;-72
2020/12/17 02:43:11;;;;;;;3.01;1.24;;;;;;;5.54;87.34;99441.59;2007734;80;21049;-72
2020/12/17 02:46:13;;;;;;;1.48;1.23;;;;;;;5.50;87.45;99436.38;2007352;80;20435;-72
2020/12/17 02:49:14;;;;;;;2.64;1.26;;;;;;;5.47;87.40;99444.94;2006592;80;20333;-72
2020/12/17 02:52:16;;;;;;;1.69;1.15;;;;;;;5.53;87.93;99439.88;2007792;80;20357;-72
2020/12/17 02:55:18;;;;;;;2.05;1.20;;;;;;;5.61;88.17;99446.03;2007171;80;20340;-72
2020/12/17 02:58:20;;;;;;;2.66;1.34;;;;;;;5.65;88.25;99447.81;2007220;80;20341;-72
2020/12/17 03:01:21;;;;;;;2.16;1.10;;;;;;;5.70;88.40;99448.72;2007126;80;20359;-72
2020/12/17 03:04:23;;;;;;;5.07;1.40;;;;;;;5.83;88.83;99442.06;2007767;80;20349;-72
2020/12/17 03:07:25;;;;;;;3.31;1.30;;;;;;;5.91;88.79;99449.94;2007613;80;20329;-72
2020/12/17 03:10:26;;;;;;;1.55;1.20;;;;;;;5.98;88.88;99449.19;2007106;80;20349;-72
2020/12/17 03:13:28;;;;;;;2.21;1.20;;;;;;;6.05;88.79;99451.00;2007255;80;20756;-72
2020/12/17 03:16:32;;;;;;;5.00;2.17;;;;;;;6.14;88.70;99451.16;2007126;80;20351;-72
2020/12/17 03:19:34;;;;;;;2.60;1.20;;;;;;;6.23;88.49;99453.00;2010440;80;20337;-72
2020/12/17 03:22:36;;;;;;;1.85;1.10;;;;;;;6.21;88.16;99449.53;2007028;80;20646;-72
2020/12/17 03:25:37;;;;;;;1.96;1.14;;;;;;;6.16;87.97;99456.34;2007942;80;20786;-72
2020/12/17 03:28:39;;;;;;;2.24;1.34;;;;;;;6.21;88.28;99454.69;2007013;80;20319;-72
2020/12/17 03:31:41;;;;;;;1.90;1.25;;;;;;;6.23;87.98;99458.16;2006914;80;20315;-72
2020/12/17 03:34:42;;;;;;;2.03;1.20;;;;;;;6.16;87.66;99462.34;2006936;80;20380;-72
2020/12/17 03:37:44;;;;;;;1.64;1.54;;;;;;;6.14;87.59;99471.78;2007618;80;20963;-72
2020/12/17 03:40:45;;;;;;;15.25;3.00;;;;;;;6.12;87.79;99465.75;2007108;80;20333;-72
2020/12/17 03:43:48;;;;;;;3.00;1.09;;;;;;;6.15;87.62;99462.34;2007287;80;20311;-72
2020/12/17 03:46:50;;;;;;;2.88;1.13;;;;;;;6.08;87.24;99469.09;2009458;80;20510;-72
2020/12/17 03:49:52;;;;;;;2.34;1.30;;;;;;;6.03;87.44;99470.75;2003963;80;20362;-72
2020/12/17 03:52:54;;;;;;;2.06;1.10;;;;;;;5.99;87.46;99475.00;2003196;80;20388;-72
2020/12/17 03:55:55;;;;;;;1.20;1.10;;;;;;;5.96;87.36;99480.09;2004154;80;20392;-72
2020/12/17 03:58:57;;;;;;;1.77;1.04;;;;;;;5.96;87.56;99474.09;2005748;80;21116;-72
2020/12/17 04:01:58;;;;;;;1.64;1.23;;;;;;;5.98;87.83;99473.25;2007519;80;20368;-72
2020/12/17 04:05:00;;;;;;;2.19;1.10;;;;;;;5.98;87.86;99475.84;2006673;80;20369;-72
2020/12/17 04:08:02;;;;;;;2.80;1.24;;;;;;;5.96;87.78;99476.66;2005110;80;20370;-73
2020/12/17 04:11:07;;;;;;;1.55;1.06;;;;;;;5.89;87.62;99469.63;2004151;80;20970;-72
2020/12/17 04:14:09;;;;;;;2.92;1.34;;;;;;;5.85;87.60;99471.31;2005920;80;20318;-72
2020/12/17 04:17:10;;;;;;;3.49;1.41;;;;;;;5.87;87.80;99466.16;2005630;80;20799;-72
2020/12/17 04:20:12;;;;;;;1.90;1.11;;;;;;;5.94;88.23;99478.34;2008069;80;20311;-72
2020/12/17 04:23:13;;;;;;;2.50;1.19;;;;;;;5.92;88.00;99478.31;2007734;80;20312;-72
2020/12/17 04:26:15;;;;;;;2.63;1.00;;;;;;;5.79;87.92;99476.38;2007490;80;20315;-72
2020/12/17 04:29:18;;;;;;;1.85;1.38;;;;;;;5.78;87.95;99486.66;2006023;80;20347;-72
2020/12/17 04:32:19;;;;;;;3.64;1.21;;;;;;;5.75;88.12;99478.03;2006189;80;20327;-72
2020/12/17 04:35:21;;;;;;;1.85;1.40;;;;;;;5.74;88.48;99480.56;2007483;80;20335;-72
2020/12/17 04:38:23;;;;;;;2.71;1.46;;;;;;;5.80;88.79;99484.97;2006732;80;20834;-72
2020/12/17 04:41:25;;;;;;;2.91;1.16;;;;;;;5.82;88.73;99485.84;2008107;80;20383;-72
2020/12/17 04:44:27;;;;;;;1.99;1.40;;;;;;;5.84;88.75;99490.19;2007455;80;20327;-72
2020/12/17 04:47:31;;;;;;;2.55;1.35;;;;;;;5.82;88.57;99486.72;2006658;80;20315;-72
2020/12/17 04:50:37;;;;;;;1.20;1.09;;;;;;;5.82;88.63;99489.28;2006222;80;20323;-72
2020/12/17 04:53:44;;;;;;;2.45;1.40;;;;;;;5.79;88.50;99489.25;2005541;80;20323;-72
2020/12/17 04:56:56;;;;;;;3.74;1.36;;;;;;;5.83;88.71;99495.31;2008019;80;20330;-72
2020/12/17 04:59:58;;;;;;;1.56;1.26;;;;;;;5.91;89.18;99504.91;2008468;80;20811;-72
2020/12/17 05:03:09;;;;;;;1.83;1.29;;;;;;;5.93;88.90;99513.56;2008309;80;20319;-72
2020/12/17 05:06:22;;;;;;;3.78;1.20;;;;;;;5.88;88.74;99516.84;2007437;80;20405;-72
2020/12/17 05:09:24;;;;;;;2.99;0.93;;;;;;;5.82;88.51;99522.78;2007815;80;20381;-72
2020/12/17 05:12:25;;;;;;;2.49;1.36;;;;;;;5.75;88.36;99526.97;2007655;80;20808;-72
2020/12/17 05:15:27;;;;;;;2.92;1.35;;;;;;;5.76;89.01;99528.72;2007757;80;20776;-72
2020/12/17 05:18:30;;;;;;;4.19;1.44;;;;;;;5.78;89.13;99531.31;2011086;80;20369;-72
2020/12/17 05:21:32;;;;;;;2.03;1.30;;;;;;;5.79;89.03;99527.91;2008526;80;20304;-72
2020/12/17 05:24:33;;;;;;;4.31;2.09;;;;;;;5.72;88.77;99533.75;2007576;80;20380;-72
2020/12/17 05:27:35;;;;;;;2.26;1.50;;;;;;;5.69;88.66;99538.88;2007558;80;20401;-72
2020/12/17 05:30:37;;;;;;;2.85;1.41;;;;;;;5.65;88.71;99547.38;2008758;80;20318;-72
2020/12/17 05:33:38;;;;;;;1.11;0.98;;;;;;;5.67;88.95;99549.16;2006616;80;20728;-72
2020/12/17 05:36:41;;;;;;;2.36;1.46;;;;;;;5.70;89.01;99553.47;2006635;80;20734;-72
2020/12/17 05:39:43;;;;;;;2.84;1.20;;;;;;;5.73;89.05;99556.97;2007548;80;20341;-72
2020/12/17 05:42:45;;;;;;;1.52;1.00;;;;;;;5.65;88.59;99558.56;2008060;80;20337;-71
2020/12/17 05:45:47;;;;;;;3.36;1.49;;;;;;;5.64;88.84;99566.25;2008131;80;20709;-72
2020/12/17 05:48:49;;;;;;;4.76;2.84;;;;;;;5.61;88.83;99556.78;2007660;80;20335;-72
2020/12/17 05:52:09;;;;;;;3.47;1.16;;;;;;;5.63;88.96;99560.25;2007040;80;21008;-72
2020/12/17 05:55:12;;;;;;;1.09;0.93;;;;;;;5.68;89.13;99571.50;2007646;80;20363;-72
2020/12/17 05:58:13;;;;;;;2.47;1.61;;;;;;;5.68;89.09;99571.50;2007828;80;20323;-71
2020/12/17 06:01:19;;;;;;;2.05;1.41;;;;;;;5.73;89.31;99567.28;2008078;80;20871;-71
2020/12/17 06:04:20;;;;;;;4.51;1.30;;;;;;;5.82;89.69;99560.56;2007213;80;20364;-72
2020/12/17 06:07:31;;;;;;;2.04;1.20;;;;;;;5.91;89.87;99563.31;2007490;80;20311;-72
2020/12/17 06:10:48;;;;;;;1.26;1.16;;;;;;;5.93;89.64;99578.00;2007382;80;20341;-72
2020/12/17 06:13:55;;;;;;;2.09;1.24;;;;;;;5.98;89.66;99575.50;2007703;80;20532;-72
2020/12/17 06:16:58;;;;;;;2.20;1.51;;;;;;;6.07;89.92;99585.94;2007105;80;20335;-72
2020/12/17 06:20:02;;;;;;;4.26;2.03;;;;;;;6.18;90.01;99591.28;2007849;80;20349;-72
2020/12/17 06:23:08;;;;;;;2.30;1.25;;;;;;;6.32;90.39;99602.69;2007566;80;20328;-72
2020/12/17 06:26:10;;;;;;;2.24;1.36;;;;;;;6.46;90.44;99606.31;2008125;80;20796;-72
2020/12/17 06:29:20;;;;;;;2.06;1.58;;;;;;;6.53;90.28;99615.91;2007350;80;20319;-72
2020/12/17 06:32:28;;;;;;;2.74;1.21;;;;;;;6.62;90.23;99625.50;2007081;80;20862;-72
2020/12/17 06:35:39;;;;;;;2.25;1.48;;;;;;;6.69;90.10;99624.75;2005681;80;20335;-72
2020/12/17 06:38:42;;;;;;;1.92;1.60;;;;;;;6.79;90.10;99625.75;2005887;80;20370;-73
2020/12/17 06:41:44;;;;;;;6.65;1.84;;;;;;;6.87;89.86;99631.91;2005313;80;20372;-73
2020/12/17 06:44:46;;;;;;;2.17;1.56;;;;;;;6.97;89.80;99626.00;2005905;80;20321;-74
2020/12/17 06:47:48;;;;;;;3.75;1.56;;;;;;;7.03;89.60;99636.44;2005969;80;20418;-73
2020/12/17 06:50:49;;;;;;;4.88;1.70;;;;;;;7.08;89.47;99632.19;2005720;80;20348;-74
2020/12/17 06:53:51;;;;;;;2.76;1.59;;;;;;;7.11;89.26;99632.22;2006343;80;20371;-73
2020/12/17 06:57:01;;;;;;;2.65;1.61;;;;;;;7.14;89.11;99639.13;2006009;80;21019;-74
2020/12/17 07:00:07;;;;;;;4.31;1.86;;;;;;;7.18;88.92;99646.97;2005811;80;20416;-78
2020/12/17 07:03:08;;;;;;;4.55;1.69;;;;;;;7.26;89.12;99645.34;2005510;80;20367;-74
2020/12/17 07:06:12;;;;;;;4.59;1.99;;;;;;;7.35;89.06;99648.88;2005855;80;20319;-74
2020/12/17 07:09:14;;;;;;;3.76;1.54;;;;;;;7.42;88.89;99649.00;2005657;80;20336;-74
2020/12/17 07:12:34;;;;;;;2.95;1.51;;;;;;;7.52;88.72;99649.94;2006054;80;20395;-73
2020/12/17 07:15:37;;;;;;;2.81;1.30;;;;;;;7.60;88.47;99660.41;2005827;80;20319;-74
2020/12/17 07:18:39;;;;;;;1.74;1.50;;;;;;;7.68;88.24;99669.09;2005234;80;20339;-73
2020/12/17 07:21:41;;;;;;;3.24;1.54;;;;;;;7.74;88.10;99674.34;2005429;80;20793;-74
2020/12/17 07:24:47;;;;;;;5.16;1.90;;;;;;;7.78;87.93;99683.88;2005159;80;20315;-71
2020/12/17 07:27:50;;;;;;;4.03;2.04;;;;;;;7.81;87.92;99700.28;2005961;80;20877;-72
2020/12/17 07:30:53;;;;;;;2.61;1.59;;;;;;;7.85;87.86;99704.63;2005273;80;20315;-72
2020/12/17 07:33:55;;;;;;;2.50;1.80;;;;;;;7.89;87.88;99705.50;2005025;80;20335;-72
2020/12/17 07:36:56;;;;;;;2.91;1.51;;;;;;;7.95;87.83;99703.03;2006537;80;20337;-73
2020/12/17 07:39:59;;;;;;;4.39;2.08;;;;;;;7.98;87.89;99702.19;2007037;80;20838;-72
2020/12/17 07:43:07;;;;;;;6.14;1.79;;;;;;;8.01;88.04;99715.13;2006809;80;20339;-73
2020/12/17 07:46:11;;;;;;;3.05;1.61;;;;;;;8.06;88.29;99713.47;2006012;80;20315;-75
2020/12/17 07:49:24;;;;;;;2.88;1.42;;;;;;;8.12;88.37;99722.16;2005771;80;20348;-73
2020/12/17 07:52:29;;;;;;;3.11;1.49;;;;;;;8.17;88.34;99725.66;2005399;80;20371;-73
2020/12/17 07:55:32;;;;;;;4.45;1.67;;;;;;;8.19;88.42;99729.13;2006640;80;20361;-80
2020/12/17 07:58:34;;;;;;;4.44;1.61;;;;;;;8.22;88.44;99738.63;2005887;80;20351;-73
2020/12/17 08:01:36;;;;;;;3.31;1.30;;;;;;;8.25;88.55;99746.44;2005750;80;21324;-73
2020/12/17 08:04:56;;;;;;;1.91;1.29;;;;;;;8.28;88.64;99748.22;2005404;80;20335;-74
2020/12/17 08:07:58;;;;;;;3.46;1.33;;;;;;;8.28;88.73;99756.84;2005589;80;20450;-73
2020/12/17 08:11:02;;;;;;;3.49;1.30;;;;;;;8.30;88.88;99760.31;2006346;80;20360;-73
2020/12/17 08:14:08;;;;;;;2.01;1.31;;;;;;;8.32;89.01;99765.50;2006227;80;20913;-73
2020/12/17 08:17:10;;;;;;;2.10;1.29;;;;;;;8.34;89.13;99775.03;2006500;80;21137;-73
2020/12/17 08:20:15;;;;;;;1.90;1.26;;;;;;;8.36;89.19;99778.50;2006149;80;20357;-74
2020/12/17 08:23:20;;;;;;;2.83;1.09;;;;;;;8.38;89.22;99771.63;2006207;80;20382;-74
2020/12/17 08:26:27;;;;;;;2.65;1.30;;;;;;;8.41;89.28;99773.38;2005456;80;20332;-75
2020/12/17 08:29:30;;;;;;;2.86;1.64;;;;;;;8.46;89.30;99776.88;2006638;80;21389;-74
2020/12/17 08:32:32;;;;;;;3.05;1.55;;;;;;;8.50;89.25;99777.78;2006429;80;20396;-74
2020/12/17 08:35:33;;;;;;;1.86;1.61;;;;;;;8.53;89.33;99782.97;2006262;80;20354;-74
2020/12/17 08:38:36;;;;;;;2.39;1.44;;;;;;;8.57;89.38;99787.34;2005380;80;21019;-73
2020/12/17 08:41:46;;;;;;;2.13;1.55;;;;;;;8.60;89.38;99800.28;2005858;80;20323;-74
2020/12/17 08:44:48;;;;;;;3.81;1.75;;;;;;;8.63;89.48;99800.34;2006109;80;20426;-74
2020/12/17 08:47:59;;;;;;;1.94;1.59;;;;;;;8.65;89.39;99804.69;2005823;80;20550;-74
2020/12/17 08:51:00;;;;;;;3.09;1.74;;;;;;;8.66;89.37;99813.31;2006371;80;20802;-74
2020/12/17 08:54:03;;;;;;;3.53;1.52;;;;;;;8.66;89.29;99818.50;2005990;80;20315;-73
2020/12/17 08:57:10;;;;;;;3.59;1.69;;;;;;;8.65;89.30;99820.22;2006083;80;20327;-73
2020/12/17 09:00:19;;;;;;;2.50;1.60;;;;;;;8.65;89.25;99817.63;2005985;80;20311;-75
2020/12/17 09:03:25;;;;;;;3.84;2.00;;;;;;;8.68;89.31;99830.59;2005562;80;20471;-75
2020/12/17 09:06:30;;;;;;;2.92;1.80;;;;;;;8.75;89.37;99840.16;2008730;80;20222;-75
2020/12/17 09:09:33;;;;;;;2.78;1.65;;;;;;;8.84;89.48;99831.63;2006546;80;20315;-75
2020/12/17 09:12:38;;;;;;;4.82;2.24;;;;;;;8.90;89.44;99844.63;2005499;80;20639;-74
2020/12/17 09:15:45;;;;;;;5.09;1.94;;;;;;;8.96;89.44;99851.56;2005881;80;20797;-75
2020/12/17 09:18:54;;;;;;;2.64;1.30;;;;;;;9.02;89.39;99855.09;2006251;80;20799;-74
2020/12/17 09:21:59;;;;;;;4.56;2.11;;;;;;;9.06;89.18;99856.00;2005583;80;20384;-74
2020/12/17 09:25:01;;;;;;;2.78;2.15;;;;;;;9.07;88.96;99862.91;2004633;80;20337;-74
2020/12/17 09:28:02;;;;;;;6.04;2.13;;;;;;;9.05;88.93;99851.66;2000967;80;20343;-75
2020/12/17 09:31:18;;;;;;;5.88;2.31;;;;;;;9.04;88.75;99863.75;1997101;80;20861;-74
2020/12/17 09:34:23;;;;;;;4.20;2.10;;;;;;;9.09;88.95;99863.78;1998831;80;20343;-74
2020/12/17 09:37:24;;;;;;;2.90;1.79;;;;;;;9.28;89.23;99865.69;2001931;80;20363;-75
2020/12/17 09:40:27;;;;;;;4.49;1.83;;;;;;;9.53;88.99;99887.50;2002949;80;21176;-74
2020/12/17 09:43:28;;;;;;;5.19;1.73;;;;;;;9.69;88.26;99894.53;2002181;80;20343;-74
2020/12/17 09:46:43;;;;;;;1.83;1.31;;;;;;;9.77;87.70;99907.53;2002769;80;20380;-74
2020/12/17 09:49:45;;;;;;;2.51;1.30;;;;;;;9.88;87.11;99902.44;2002899;80;20315;-74
2020/12/17 09:52:49;;;;;;;2.10;1.45;;;;;;;9.96;86.68;99890.38;2001210;80;20339;-74
2020/12/17 09:55:51;;;;;;;2.11;1.30;;;;;;;9.95;85.87;99893.84;2006060;80;20331;-74
2020/12/17 09:58:52;;;;;;;2.55;1.17;;;;;;;9.85;85.35;99900.66;2006783;80;20210;-74
2020/12/17 10:01:58;;;;;;;1.30;1.13;;;;;;;9.79;85.47;99908.41;2007096;80;20385;-74
2020/12/17 10:05:00;;;;;;;3.56;1.24;;;;;;;9.70;85.54;99910.97;2006717;80;20193;-75
2020/12/17 10:08:02;;;;;;;2.38;1.33;;;;;;;9.62;85.47;99913.47;2007328;80;20828;-74
2020/12/17 10:11:07;;;;;;;2.78;1.58;;;;;;;9.58;85.68;99914.31;2007825;80;20423;-74
2020/12/17 10:14:09;;;;;;;1.83;1.35;;;;;;;9.57;85.95;99914.31;2007507;80;20985;-73
2020/12/17 10:17:10;;;;;;;1.86;1.20;;;;;;;9.60;86.22;99914.31;2006413;80;20311;-74
2020/12/17 10:20:12;;;;;;;2.42;1.20;;;;;;;9.63;86.00;99920.41;2006894;80;20176;-74
2020/12/17 10:23:19;;;;;;;1.64;1.38;;;;;;;9.67;86.13;99913.50;2006845;80;20368;-74
2020/12/17 10:26:20;;;;;;;2.99;2.01;;;;;;;9.70;86.12;99926.53;2007940;80;20334;-73
2020/12/17 10:29:22;;;;;;;2.96;1.19;;;;;;;9.77;86.05;99919.66;2007322;80;20368;-74
2020/12/17 10:32:23;;;;;;;3.47;1.54;;;;;;;9.79;85.74;99923.13;2007272;80;20215;-74
2020/12/17 10:35:25;;;;;;;2.39;1.21;;;;;;;9.76;85.34;99933.47;2006908;80;20853;-74
2020/12/17 10:38:26;;;;;;;1.52;0.70;;;;;;;9.72;84.84;99935.19;2006671;80;20353;-74
2020/12/17 10:41:28;;;;;;;2.00;0.93;;;;;;;9.71;84.95;99937.75;2005982;80;20372;-74
2020/12/17 10:44:31;;;;;;;2.45;0.80;;;;;;;9.73;84.93;99936.91;2006735;80;20327;-74
2020/12/17 10:47:33;;;;;;;0.89;0.70;;;;;;;9.84;85.09;99944.75;2007187;80;20319;-74
2020/12/17 10:50:35;;;;;;;1.24;0.84;;;;;;;9.89;84.88;99945.69;2006796;80;20315;-74
2020/12/17 10:53:36;;;;;;;2.45;0.82;;;;;;;9.90;84.85;99955.19;2006539;80;21241;-75
2020/12/17 10:56:38;;;;;;;1.92;1.00;;;;;;;9.90;84.77;99950.88;2006979;80;20319;-75
2020/12/17 10:59:40;;;;;;;4.79;1.00;;;;;;;9.89;84.51;99943.94;2006929;80;20347;-74
2020/12/17 11:02:41;;;;;;;1.31;0.80;;;;;;;9.86;84.17;99945.63;2006008;80;20193;-75
2020/12/17 11:05:43;;;;;;;1.33;1.09;;;;;;;9.88;84.11;99951.72;2006308;80;20222;-75
2020/12/17 11:08:45;;;;;;;2.72;0.69;;;;;;;9.91;84.22;99952.63;2007064;80;20586;-75
2020/12/17 11:11:50;;;;;;;1.20;0.71;;;;;;;9.92;84.09;99948.28;2007593;80;20376;-75
2020/12/17 11:14:52;;;;;;;0.96;0.75;;;;;;;9.97;83.98;99947.47;2008428;80;20816;-75
2020/12/17 11:17:53;;;;;;;1.34;0.74;;;;;;;9.96;83.41;99945.72;2008058;80;20460;-75
2020/12/17 11:20:55;;;;;;;1.36;0.73;;;;;;;10.00;83.43;99937.09;2008075;80;20338;-74
2020/12/17 11:23:57;;;;;;;1.06;0.65;;;;;;;10.13;83.34;99932.84;2008203;80;20462;-74
2020/12/17 11:26:58;;;;;;;0.65;0.60;;;;;;;10.34;83.30;99932.13;2007714;80;20343;-75
2020/12/17 11:30:00;;;;;;;1.38;0.50;;;;;;;10.52;82.24;99942.63;2008132;80;20819;-75
2020/12/17 11:33:03;;;;;;;1.52;0.50;;;;;;;10.61;81.82;99927.94;2008128;80;20212;-75
2020/12/17 11:36:05;;;;;;;2.47;0.59;;;;;;;10.67;81.07;99930.56;2007793;80;20364;-75
2020/12/17 11:39:07;;;;;;;0.74;0.50;;;;;;;10.87;80.87;99934.09;2008272;80;20375;-75
2020/12/17 11:42:08;;;;;;;1.26;0.40;;;;;;;11.03;79.64;99928.06;2007775;80;20396;-75
2020/12/17 11:45:10;;;;;;;1.40;0.43;;;;;;;11.13;78.73;99931.53;2011356;80;20203;-78
2020/12/17 11:48:14;;;;;;;0.69;0.40;;;;;;;11.16;77.26;99935.03;2008267;80;20199;-84
2020/12/17 11:51:16;;;;;;;0.46;0.35;;;;;;;11.20;77.27;99941.97;2008249;80;20197;-75
2020/12/17 11:54:19;;;;;;;0.38;0.32;;;;;;;11.17;75.48;99939.38;2011517;80;20192;-75
2020/12/17 11:57:20;;;;;;;1.40;0.34;;;;;;;11.13;75.67;99931.53;2008467;80;20633;-74
2020/12/17 12:00:22;;;;;;;0.41;0.22;;;;;;;11.19;76.41;99928.97;2007572;80;20199;-75
2020/12/17 12:03:24;;;;;;;0.73;0.30;;;;;;;11.18;75.67;99929.84;2008144;80;20238;-75
2020/12/17 12:06:25;;;;;;;1.02;0.40;;;;;;;11.18;75.33;99935.91;2008030;80;20632;-75
2020/12/17 12:09:27;;;;;;;0.71;0.30;;;;;;;11.16;75.86;99936.78;2008075;80;20202;-74
2020/12/17 12:12:29;;;;;;;0.40;0.40;;;;;;;11.09;75.39;99938.47;2007335;80;20202;-74
2020/12/17 12:15:31;;;;;;;1.74;0.60;;;;;;;10.99;75.25;99933.28;2007820;80;20200;-75
2020/12/17 12:18:32;;;;;;;1.01;0.41;;;;;;;10.90;75.54;99926.31;2006416;80;20184;-75
2020/12/17 12:21:34;;;;;;;0.38;0.38;;;;;;;10.89;75.67;99930.63;2007474;80;20745;-74
2020/12/17 12:24:36;;;;;;;0.63;0.30;;;;;;;10.88;75.37;99934.09;2007800;80;20588;-75
2020/12/17 12:27:37;;;;;;;1.00;0.30;;;;;;;10.88;76.09;99935.81;2007137;80;20185;-75
2020/12/17 12:30:39;;;;;;;0.70;0.40;;;;;;;10.84;75.28;99924.56;2010372;80;20202;-75
2020/12/17 12:33:41;;;;;;;1.90;0.30;;;;;;;10.87;75.48;99931.50;2007770;80;20197;-82
2020/12/17 12:36:50;;;;;;;2.33;0.40;;;;;;;10.90;75.73;99931.50;2008840;80;20195;-75
2020/12/17 12:39:52;;;;;;;1.59;0.40;;;;;;;10.94;76.29;99937.56;2007577;80;20223;-75
2020/12/17 12:42:53;;;;;;;0.86;0.34;;;;;;;10.92;75.41;99937.56;2007194;80;20218;-74
2020/12/17 12:45:55;;;;;;;0.76;0.38;;;;;;;10.92;75.62;99939.28;2007337;80;20661;-74
2020/12/17 12:48:56;;;;;;;0.73;0.65;;;;;;;10.94;75.91;99942.75;2007793;80;20181;-76
2020/12/17 12:51:58;;;;;;;0.96;0.30;;;;;;;10.94;75.32;99951.41;2007612;80;20250;-75
2020/12/17 12:55:00;;;;;;;1.41;0.32;;;;;;;10.92;75.21;99947.09;2007221;80;20185;-75
2020/12/17 12:58:02;;;;;;;0.31;0.31;;;;;;;10.86;75.35;99948.81;2007180;80;20246;-75
2020/12/17 13:01:03;;;;;;;2.14;0.50;;;;;;;10.84;75.71;99944.47;2007232;80;20195;-75
2020/12/17 13:04:06;;;;;;;0.76;0.40;;;;;;;10.82;75.89;99947.06;2007293;80;20274;-75
2020/12/17 13:07:07;;;;;;;0.71;0.40;;;;;;;10.80;75.89;99941.00;2007411;80;20185;-75
2020/12/17 13:10:09;;;;;;;0.93;0.40;;;;;;;10.78;76.24;99945.34;2006975;80;20654;-75
2020/12/17 13:13:11;;;;;;;4.63;0.55;;;;;;;10.73;76.23;99940.97;2007298;80;20643;-75
2020/12/17 13:16:20;;;;;;;0.60;0.40;;;;;;;10.68;75.92;99937.50;2007279;80;20709;-75
2020/12/17 13:19:22;;;;;;;1.09;0.50;;;;;;;10.69;76.36;99942.69;2007559;80;20177;-75
2020/12/17 13:22:23;;;;;;;1.29;0.50;;;;;;;10.67;75.93;99952.22;2007058;80;20319;-75
2020/12/17 13:25:25;;;;;;;0.99;0.69;;;;;;;10.74;75.85;99948.75;2007428;80;20390;-76
2020/12/17 13:28:26;;;;;;;1.45;0.70;;;;;;;10.81;75.90;99944.47;2007779;80;20666;-75
2020/12/17 13:31:28;;;;;;;1.11;0.61;;;;;;;10.86;75.91;99954.00;2007396;80;20211;-76
2020/12/17 13:34:31;;;;;;;1.67;0.50;;;;;;;10.85;75.54;99954.88;2007869;80;20799;-75
2020/12/17 13:37:33;;;;;;;1.16;0.56;;;;;;;10.82;75.20;99954.88;2007793;80;20194;-75
2020/12/17 13:40:34;;;;;;;1.90;0.46;;;;;;;10.80;74.90;99955.72;2007533;80;20378;-75
2020/12/17 13:43:37;;;;;;;1.16;0.40;;;;;;;10.76;74.96;99946.16;2007484;80;20169;-76
2020/12/17 13:46:38;;;;;;;1.85;0.55;;;;;;;10.73;75.12;99952.22;2007116;80;20211;-76
2020/12/17 13:49:40;;;;;;;1.55;0.60;;;;;;;10.72;75.36;99950.50;2007393;80;20223;-76
2020/12/17 13:52:43;;;;;;;2.53;0.49;;;;;;;10.70;75.37;99966.94;2006692;80;20207;-75
2020/12/17 13:55:44;;;;;;;3.34;0.60;;;;;;;10.66;75.69;99971.25;2008080;80;20205;-75
2020/12/17 13:58:46;;;;;;;1.08;0.40;;;;;;;10.63;75.37;99968.63;2007160;80;20198;-75
2020/12/17 14:01:47;;;;;;;1.61;0.60;;;;;;;10.56;75.40;99959.94;2005967;80;20578;-75
2020/12/17 14:04:49;;;;;;;1.95;0.50;;;;;;;10.54;75.72;99960.78;2005898;80;21085;-76
2020/12/17 14:07:51;;;;;;;2.00;0.52;;;;;;;10.58;75.84;99970.31;2005874;80;20246;-75
2020/12/17 14:10:53;;;;;;;1.39;0.44;;;;;;;10.58;75.86;99962.53;2005822;80;20737;-75
2020/12/17 14:13:54;;;;;;;2.15;0.44;;;;;;;10.59;75.39;99966.88;2005439;80;20238;-75
2020/12/17 14:16:56;;;;;;;0.96;0.40;;;;;;;10.57;74.99;99981.56;2005819;80;20226;-75
2020/12/17 14:19:57;;;;;;;1.70;0.44;;;;;;;10.55;74.43;99978.09;2005638;80;20217;-75
2020/12/17 14:22:59;;;;;;;1.71;0.50;;;;;;;10.55;74.26;99985.91;2006131;80;20724;-75
2020/12/17 14:26:01;;;;;;;1.24;0.40;;;;;;;10.53;74.79;99974.63;2005546;80;20204;-76
2020/12/17 14:29:03;;;;;;;2.40;0.47;;;;;;;10.50;74.41;99983.28;2005537;80;20201;-76
2020/12/17 14:32:04;;;;;;;1.34;0.50;;;;;;;10.48;74.91;99987.59;2005993;80;20605;-76